createdAt,value
2022-11-30T00:15:49.243Z,70.58
2022-11-30T01:19:21.103Z,67.26
2022-11-30T01:25:21.318Z,67.60
2022-11-30T01:28:15.504Z,67.00
2022-11-30T01:30:43.186Z,68.12
2022-11-30T01:33:11.165Z,68.58
2022-11-30T01:38:13.364Z,69.68
2022-11-30T01:49:45.615Z,67.64
2022-11-30T01:58:36.714Z,68.03
2022-11-30T02:01:06.426Z,67.37
2022-11-30T02:03:48.600Z,68.83
2022-11-30T02:06:15.985Z,67.76
2022-11-30T02:08:43.027Z,68.24
2022-11-30T03:58:37.692Z,68.18
2022-11-30T04:01:08.244Z,68.63
2022-11-30T04:03:35.868Z,68.46
2022-11-30T04:06:11.538Z,68.54
2022-11-30T04:08:39.179Z,67.55
2022-11-30T04:15:17.300Z,67.67
2022-11-30T05:04:51.467Z,64.65
2022-11-30T05:07:19.232Z,64.58
2022-11-30T05:09:46.981Z,64.85
2022-11-30T05:16:11.455Z,63.82
2022-11-30T05:32:15.137Z,63.91
2022-11-30T05:35:05.867Z,64.13
2022-11-30T05:37:33.096Z,63.71
2022-11-30T05:40:00.646Z,63.64
2022-11-30T05:42:28.509Z,63.62
2022-11-30T05:44:55.055Z,63.90
2022-11-30T05:47:22.871Z,64.00
2022-11-30T05:49:55.620Z,63.87
2022-11-30T05:52:22.540Z,64.33
2022-11-30T05:54:49.345Z,64.52
2022-11-30T05:57:16.238Z,63.77
2022-11-30T05:59:42.806Z,63.11
2022-11-30T06:02:09.479Z,62.96
2022-11-30T06:04:36.181Z,63.01
2022-11-30T06:07:02.825Z,63.10
2022-11-30T06:12:09.345Z,63.74
2022-11-30T06:14:35.940Z,65.36
2022-11-30T06:17:02.541Z,63.14
2022-11-30T06:19:29.136Z,62.83
2022-11-30T06:21:58.362Z,62.59
2022-11-30T06:24:29.721Z,62.05
2022-11-30T06:29:38.287Z,61.84
2022-11-30T06:32:10.559Z,62.15
2022-11-30T06:34:37.087Z,61.99
2022-11-30T06:37:06.371Z,61.07
2022-11-30T06:40:06.474Z,62.03
2022-11-30T06:42:36.557Z,61.40
2022-11-30T06:45:03.825Z,61.29
2022-11-30T06:47:31.271Z,61.13
2022-11-30T06:49:57.840Z,60.72
2022-11-30T06:52:24.388Z,60.61
2022-11-30T06:54:51.471Z,61.05
2022-11-30T06:57:18.317Z,60.97
2022-11-30T06:59:46.616Z,60.47
2022-11-30T07:02:18.154Z,60.53
2022-11-30T07:04:46.397Z,60.21
2022-11-30T07:07:15.900Z,59.85
2022-11-30T07:09:42.683Z,60.31
2022-11-30T07:12:10.999Z,60.45
2022-11-30T07:14:37.640Z,60.00
2022-11-30T07:17:05.852Z,59.58
2022-11-30T07:19:43.234Z,59.65
2022-11-30T07:22:19.285Z,59.93
2022-11-30T07:25:10.795Z,60.18
2022-11-30T07:27:37.406Z,59.48
2022-11-30T07:35:55.136Z,60.11
2022-11-30T07:38:22.158Z,59.52
2022-11-30T07:41:10.923Z,59.46
2022-11-30T07:43:37.571Z,58.92
2022-11-30T07:46:05.219Z,58.07
2022-11-30T07:48:35.228Z,57.90
2022-11-30T07:55:07.989Z,58.72
2022-11-30T07:57:34.508Z,58.31
2022-11-30T08:00:01.014Z,57.19
2022-11-30T08:02:27.607Z,56.66
2022-11-30T08:07:56.809Z,56.89
2022-11-30T08:58:38.286Z,55.23
2022-11-30T09:01:13.286Z,55.27
2022-11-30T09:03:41.004Z,55.17
2022-11-30T09:06:12.870Z,54.20
2022-11-30T09:08:43.343Z,54.13
2022-11-30T09:27:36.563Z,52.66
2022-11-30T09:30:03.634Z,53.66
2022-11-30T09:32:30.241Z,52.21
2022-11-30T09:34:56.798Z,52.76
2022-11-30T09:37:25.202Z,53.22
2022-11-30T09:48:18.471Z,51.88
2022-11-30T09:50:48.128Z,51.98
2022-11-30T09:53:43.232Z,52.00
2022-11-30T09:56:22.981Z,53.22
2022-11-30T09:59:14.147Z,52.86
2022-11-30T10:01:44.959Z,52.70
2022-11-30T10:04:24.732Z,52.05
2022-11-30T10:07:24.991Z,51.05
2022-11-30T10:15:38.702Z,52.78
2022-11-30T10:18:24.550Z,51.76
2022-11-30T10:21:12.324Z,52.92
2022-11-30T10:24:38.918Z,52.73
2022-11-30T10:27:16.513Z,51.91
2022-11-30T10:29:44.078Z,52.13
2022-11-30T10:32:22.440Z,52.42
2022-11-30T10:56:13.581Z,50.68
2022-11-30T10:59:02.647Z,50.57
2022-11-30T11:01:35.747Z,52.12
2022-11-30T11:04:14.655Z,51.68
2022-11-30T11:07:38.439Z,52.24
2022-11-30T11:11:08.065Z,50.32
2022-11-30T11:14:22.450Z,52.00
2022-11-30T11:17:28.634Z,51.51
2022-11-30T11:19:55.767Z,50.52
2022-11-30T11:22:27.946Z,50.86
2022-11-30T11:25:09.119Z,51.41
2022-11-30T11:27:41.203Z,51.24
2022-11-30T11:30:26.406Z,51.35
2022-11-30T11:33:03.831Z,50.45
2022-11-30T11:39:26.298Z,50.81
2022-11-30T11:41:55.342Z,50.33
2022-11-30T11:44:25.904Z,50.53
2022-11-30T11:57:53.490Z,49.31
2022-11-30T12:00:23.383Z,48.87
2022-11-30T12:03:06.769Z,48.62
2022-11-30T12:09:41.296Z,49.37
2022-11-30T12:12:13.104Z,49.32
2022-11-30T12:14:39.760Z,50.29
2022-11-30T12:17:23.613Z,50.04
2022-11-30T12:20:11.527Z,50.56
2022-11-30T12:22:44.179Z,50.85
2022-11-30T12:25:13.648Z,51.33
2022-11-30T12:27:40.158Z,49.91
2022-11-30T12:30:15.844Z,49.28
2022-11-30T12:33:20.792Z,50.34
2022-11-30T12:36:08.763Z,51.23
2022-11-30T13:09:06.164Z,50.19
2022-11-30T13:11:38.475Z,50.97
2022-11-30T13:14:22.082Z,51.33
2022-11-30T13:16:56.343Z,50.89
2022-11-30T13:19:40.979Z,51.23
2022-11-30T13:22:28.625Z,51.61
2022-11-30T13:25:09.936Z,52.50
2022-11-30T13:27:46.342Z,53.97
2022-11-30T13:30:34.307Z,52.23
2022-11-30T13:33:38.263Z,53.36
2022-11-30T13:36:07.534Z,54.23
2022-11-30T13:38:37.452Z,54.05
2022-11-30T13:41:07.514Z,52.90
2022-11-30T13:43:44.159Z,52.40
2022-11-30T13:46:11.876Z,54.90
2022-11-30T13:48:40.679Z,53.68
2022-11-30T13:51:08.159Z,53.81
2022-11-30T13:53:37.331Z,52.80
2022-11-30T13:56:34.057Z,53.93
2022-11-30T13:59:25.314Z,52.49
2022-11-30T14:05:14.416Z,53.32
2022-11-30T14:07:41.157Z,52.11
2022-11-30T14:10:46.408Z,52.88
2022-11-30T14:13:14.122Z,53.41
2022-11-30T14:15:43.557Z,54.24
2022-11-30T14:18:10.148Z,53.39
2022-11-30T14:20:45.829Z,52.93
2022-11-30T14:23:19.003Z,53.40
2022-11-30T14:25:51.839Z,53.72
2022-11-30T14:28:31.555Z,51.81
2022-11-30T14:31:00.088Z,52.90
2022-11-30T14:33:44.570Z,53.46
2022-11-30T14:36:12.263Z,52.48
2022-11-30T14:38:42.190Z,52.44
2022-11-30T14:41:41.167Z,51.12
2022-11-30T14:44:14.393Z,51.93
2022-11-30T14:46:41.521Z,50.63
2022-11-30T14:49:19.787Z,49.93
2022-11-30T14:51:50.623Z,51.06
2022-11-30T14:54:44.648Z,51.02
2022-11-30T14:57:30.124Z,51.13
2022-11-30T14:59:57.715Z,50.78
2022-11-30T15:02:28.647Z,51.41
2022-11-30T15:04:56.930Z,51.75
2022-11-30T15:10:09.450Z,49.83
2022-11-30T15:12:39.992Z,50.82
2022-11-30T15:15:14.070Z,50.40
2022-11-30T15:20:38.952Z,50.62
2022-11-30T15:23:05.595Z,49.66
2022-11-30T15:25:39.488Z,49.45
2022-11-30T15:28:07.399Z,49.36
2022-11-30T15:30:38.426Z,49.74
2022-11-30T15:33:05.093Z,50.06
2022-11-30T15:38:08.687Z,50.75
2022-11-30T15:40:35.587Z,49.95
2022-11-30T15:43:02.645Z,50.72
2022-11-30T15:45:36.349Z,49.28
2022-11-30T15:48:03.713Z,49.20
2022-11-30T15:50:45.512Z,48.94
2022-11-30T15:53:47.391Z,48.36
2022-11-30T15:56:27.263Z,48.15
2022-11-30T15:59:04.500Z,48.03
2022-11-30T16:01:32.209Z,48.00
2022-11-30T16:04:00.104Z,49.28
2022-11-30T16:06:33.922Z,48.38
2022-11-30T16:25:54.536Z,51.36
2022-11-30T16:28:23.144Z,48.95
2022-11-30T16:30:50.289Z,49.49
2022-11-30T16:33:22.398Z,49.85
2022-11-30T16:35:56.156Z,49.60
2022-11-30T16:38:38.119Z,50.95
2022-11-30T16:41:23.028Z,51.81
2022-11-30T16:43:51.700Z,49.97
2022-11-30T16:46:33.572Z,49.54
2022-11-30T16:49:47.456Z,49.58
2022-11-30T16:52:30.957Z,49.15
2022-11-30T16:54:57.340Z,50.21
2022-11-30T16:57:23.891Z,50.76
2022-11-30T16:59:50.412Z,50.77
2022-11-30T17:02:22.296Z,50.38
2022-11-30T17:04:49.096Z,51.07
2022-11-30T17:07:15.806Z,51.09
2022-11-30T17:09:42.500Z,50.17
2022-11-30T17:12:09.626Z,50.74
2022-11-30T17:14:36.364Z,50.71
2022-11-30T17:17:03.031Z,51.50
2022-11-30T17:19:29.681Z,51.16
2022-11-30T17:21:56.420Z,51.67
2022-11-30T17:24:22.956Z,52.29
2022-11-30T17:26:49.859Z,52.39
2022-11-30T17:29:16.506Z,52.69
2022-11-30T17:31:43.062Z,53.02
2022-11-30T17:34:09.790Z,53.03
2022-11-30T17:36:36.464Z,53.52
2022-11-30T17:39:09.111Z,54.66
2022-11-30T17:41:35.684Z,55.10
2022-11-30T17:44:02.862Z,54.62
2022-11-30T17:46:29.610Z,54.80
2022-11-30T17:48:59.457Z,54.92
2022-11-30T17:51:26.347Z,55.32
2022-11-30T17:53:53.027Z,54.70
2022-11-30T17:56:19.636Z,55.87
2022-11-30T17:58:49.102Z,55.15
2022-11-30T18:01:19.788Z,54.50
2022-11-30T18:03:47.094Z,54.57
2022-11-30T18:06:14.434Z,55.42
2022-11-30T18:08:41.086Z,54.89
2022-11-30T18:11:20.261Z,55.35
2022-11-30T18:13:48.265Z,55.26
2022-11-30T18:16:18.590Z,55.05
2022-11-30T18:18:48.015Z,55.12
2022-11-30T18:21:16.993Z,54.80
2022-11-30T18:23:43.562Z,55.75
2022-11-30T18:26:16.140Z,55.50
2022-11-30T18:28:47.093Z,55.68
2022-11-30T18:31:13.768Z,55.74
2022-11-30T18:33:40.890Z,55.52
2022-11-30T18:36:08.035Z,55.60
2022-11-30T18:38:37.926Z,56.21
2022-11-30T18:41:06.303Z,56.04
2022-11-30T18:43:33.901Z,56.44
2022-11-30T18:46:19.118Z,55.78
2022-11-30T18:48:49.104Z,55.77
2022-11-30T18:51:24.575Z,55.73
2022-11-30T18:53:57.726Z,55.61
2022-11-30T18:56:26.335Z,55.76
2022-11-30T18:58:58.405Z,55.58
2022-11-30T19:01:25.604Z,55.38
2022-11-30T19:03:57.253Z,55.30
2022-11-30T19:06:25.283Z,55.86
2022-11-30T19:08:51.873Z,55.90
2022-11-30T19:11:18.440Z,55.96
2022-11-30T19:13:45.897Z,56.50
2022-11-30T19:16:16.065Z,56.73
2022-11-30T19:18:45.010Z,56.73
2022-11-30T19:21:17.028Z,57.25
2022-11-30T19:23:44.336Z,57.83
2022-11-30T19:26:12.042Z,58.23
2022-11-30T19:28:39.904Z,57.98
2022-11-30T19:31:17.880Z,57.85
2022-11-30T19:33:47.657Z,57.84
2022-11-30T19:36:17.613Z,58.25
2022-11-30T19:38:44.933Z,58.42
2022-11-30T19:41:14.203Z,58.27
2022-11-30T19:43:41.284Z,58.43
2022-11-30T19:46:16.126Z,58.37
2022-11-30T19:48:43.893Z,58.36
2022-11-30T19:51:16.440Z,58.27
2022-11-30T19:53:44.533Z,58.35
2022-11-30T20:12:23.466Z,57.87
2022-11-30T20:14:53.684Z,58.12
2022-11-30T20:17:20.376Z,57.88
2022-11-30T20:19:46.917Z,57.91
2022-11-30T20:22:13.467Z,58.08
2022-11-30T20:24:40.033Z,60.31
2022-11-30T20:27:07.209Z,59.81
2022-11-30T20:29:33.799Z,58.58
2022-11-30T20:32:00.359Z,58.96
2022-11-30T20:34:32.679Z,58.34
2022-11-30T20:37:00.815Z,58.62
2022-11-30T20:39:27.336Z,58.29
2022-11-30T20:41:53.893Z,60.47
2022-11-30T20:44:20.630Z,60.68
2022-11-30T20:46:47.205Z,58.78
2022-11-30T20:49:21.223Z,58.56
2022-11-30T20:51:48.480Z,58.81
2022-11-30T20:54:16.247Z,59.65
2022-11-30T20:56:43.208Z,58.60
2022-11-30T20:59:15.626Z,59.80
2022-11-30T21:01:44.262Z,58.49
2022-11-30T21:04:11.414Z,58.55
2022-11-30T21:06:38.239Z,59.00
2022-11-30T21:09:04.959Z,58.41
2022-11-30T21:11:31.694Z,58.37
2022-11-30T21:13:58.566Z,58.04
2022-11-30T21:16:28.586Z,59.05
2022-11-30T21:18:59.528Z,59.98
2022-11-30T21:21:30.444Z,58.92
2022-11-30T21:24:00.119Z,58.66
2022-11-30T21:26:32.755Z,58.78
2022-11-30T21:29:01.840Z,58.79
2022-11-30T21:31:28.808Z,59.26
2022-11-30T21:33:55.471Z,59.21
2022-11-30T21:36:23.516Z,59.55
2022-11-30T21:38:58.177Z,58.96
2022-11-30T21:41:29.693Z,59.88
2022-11-30T21:43:56.628Z,60.93
2022-11-30T21:46:23.745Z,60.50
2022-11-30T21:48:50.673Z,59.62
2022-11-30T21:51:21.300Z,58.56
2022-11-30T21:53:59.428Z,58.57
2022-11-30T21:56:28.856Z,59.28
2022-11-30T21:58:56.734Z,59.51
2022-11-30T22:01:27.542Z,59.38
2022-11-30T22:03:55.895Z,60.19
2022-11-30T22:06:25.081Z,59.60
2022-11-30T22:08:51.856Z,58.51
2022-11-30T22:11:23.090Z,57.99
2022-11-30T22:13:53.894Z,57.27
2022-11-30T22:16:22.712Z,57.79
2022-11-30T22:18:53.041Z,57.01
2022-11-30T22:21:30.395Z,56.83
2022-11-30T22:24:09.507Z,57.21
2022-11-30T22:26:38.551Z,56.98
2022-11-30T22:29:13.060Z,56.86
2022-11-30T22:31:42.342Z,56.56
2022-11-30T22:34:09.349Z,56.28
2022-11-30T22:36:37.732Z,56.68
2022-11-30T22:39:19.357Z,56.42
2022-11-30T22:41:51.275Z,56.59
2022-11-30T22:44:21.820Z,55.97
2022-11-30T22:46:48.406Z,56.12
2022-11-30T22:49:20.686Z,55.97
2022-11-30T22:51:48.378Z,55.61
2022-11-30T22:54:15.136Z,57.11
2022-11-30T22:56:41.823Z,57.02
2022-11-30T22:59:12.009Z,56.67
2022-11-30T23:01:45.644Z,55.83
2022-11-30T23:04:15.436Z,56.14
2022-11-30T23:06:43.313Z,55.59
2022-11-30T23:09:16.054Z,54.96
2022-11-30T23:11:42.915Z,55.35
2022-11-30T23:14:09.852Z,55.97
2022-11-30T23:16:37.083Z,55.43
2022-11-30T23:19:04.662Z,56.44
2022-11-30T23:21:50.252Z,55.48
2022-11-30T23:24:22.052Z,55.32
2022-11-30T23:26:49.234Z,56.40
2022-11-30T23:29:17.614Z,57.00
2022-11-30T23:31:45.284Z,55.82
2022-11-30T23:34:16.703Z,56.06
2022-11-30T23:36:43.319Z,56.17
2022-11-30T23:39:12.887Z,57.63
2022-11-30T23:41:39.966Z,56.98
2022-11-30T23:44:07.300Z,59.22
2022-11-30T23:46:34.527Z,57.45
2022-11-30T23:49:01.182Z,58.34
2022-11-30T23:51:27.832Z,57.43
2022-11-30T23:54:03.572Z,56.58
2022-11-30T23:56:30.268Z,57.67
2022-11-30T23:58:56.824Z,58.18
